Terminal Aerodrome Forecast
Issued by NWS Bismarck, ND

Home | Current Version | Previous Version | Text Only | Print | Product List | Glossary On
Versions: 1 2 3 4 5 6 7 8 9 10 11 12 13
532
FTUS43 KBIS 242332
TAFISN
TAF
KISN 242332Z 2500/2524 06011KT P6SM OVC015
      TEMPO 2500/2502 OVC020
     FM250600 05007KT P6SM BKN015
      TEMPO 2506/2510 OVC008
     FM251900 04014KT P6SM BKN020
     FM252200 04011KT P6SM BKN035=

USA.gov is the U.S. government's official web portal to all federal, state and local government web resources and services.